Time;durP1;ratioP1;P1;durP2;ratioP2;P2;SDS_P1;SDS_P2;PMS_P1;PMS_P2;Temp;Humidity;BMP_temperature;BMP_pressure;BME280_temperature;BME280_humidity;BME280_pressure;Samples;Min_cycle;Max_cycle;Signal;HPM_P1;HPM_P2
2022/05/19 00:02:06;;;;;;;2.17;0.90;;;;;;;25.97;15.43;99264.56;5043118;28;20040;-79
2022/05/19 00:04:33;;;;;;;1.05;0.80;;;;;;;26.30;15.46;99265.81;5044576;28;20037;-79
2022/05/19 00:06:59;;;;;;;1.80;0.70;;;;;;;26.55;15.56;99255.81;5026056;28;20026;-79
2022/05/19 00:09:25;;;;;;;2.17;0.70;;;;;;;26.55;15.26;99252.19;5045023;28;20099;-77
2022/05/19 00:11:53;;;;;;;2.15;0.70;;;;;;;26.56;15.19;99259.41;5045227;28;20041;-77
2022/05/19 00:14:19;;;;;;;1.73;1.02;;;;;;;26.42;15.63;99263.22;5045542;28;20029;-77
2022/05/19 00:16:46;;;;;;;1.95;0.95;;;;;;;26.39;15.55;99260.47;5045919;28;20062;-76
2022/05/19 00:19:13;;;;;;;2.60;0.80;;;;;;;26.29;15.61;99253.75;5047513;28;20480;-77
2022/05/19 00:21:39;;;;;;;2.40;0.82;;;;;;;26.17;15.80;99259.91;5045317;28;20499;-77
2022/05/19 00:24:06;;;;;;;1.75;0.95;;;;;;;26.19;15.84;99257.47;5045959;28;20033;-77
2022/05/19 00:26:32;;;;;;;1.70;0.85;;;;;;;26.13;15.93;99250.72;5047913;28;20032;-77
2022/05/19 00:28:58;;;;;;;1.42;0.70;;;;;;;25.78;16.23;99262.34;5049467;28;20044;-77
2022/05/19 00:31:26;;;;;;;0.88;0.63;;;;;;;25.51;16.28;99269.84;5045044;28;20672;-77
2022/05/19 00:33:52;;;;;;;5.20;1.00;;;;;;;25.65;16.45;99269.72;5047218;28;20039;-77
2022/05/19 00:36:20;;;;;;;1.77;1.25;;;;;;;25.93;16.05;99266.59;5046456;28;20039;-77
2022/05/19 00:38:46;;;;;;;4.03;0.90;;;;;;;26.18;16.27;99266.34;5046892;28;20033;-77
2022/05/19 00:41:14;;;;;;;1.77;1.08;;;;;;;26.09;16.20;99261.97;5024156;28;20408;-77
2022/05/19 00:43:44;;;;;;;1.95;0.80;;;;;;;26.04;16.07;99256.81;5027747;28;20033;-77
2022/05/19 00:46:21;;;;;;;2.45;1.10;;;;;;;26.06;15.21;99264.84;5029463;28;20030;-77
2022/05/19 00:49:02;;;;;;;3.03;0.80;;;;;;;26.07;15.44;99258.78;5029673;28;20033;-76
2022/05/19 00:51:39;;;;;;;2.20;0.90;;;;;;;26.14;15.26;99263.56;5029636;28;20029;-77
2022/05/19 00:54:09;;;;;;;1.83;0.80;;;;;;;26.01;15.28;99268.91;5027591;28;20515;-77
2022/05/19 00:56:42;;;;;;;2.03;1.38;;;;;;;25.80;15.54;99265.53;5028393;28;20041;-77
2022/05/19 00:59:18;;;;;;;2.42;0.90;;;;;;;25.59;15.91;99260.09;5027790;28;20037;-77
2022/05/19 01:01:44;;;;;;;2.08;0.80;;;;;;;25.35;16.09;99264.69;5030187;28;20033;-77
2022/05/19 01:04:19;;;;;;;1.85;0.73;;;;;;;25.47;16.08;99261.41;5028923;28;20124;-76
2022/05/19 01:06:48;;;;;;;3.00;0.60;;;;;;;25.38;15.97;99253.44;5030245;28;20030;-77
2022/05/19 01:09:16;;;;;;;1.27;0.70;;;;;;;25.48;16.01;99248.16;5026339;28;20108;-77
2022/05/19 01:11:43;;;;;;;1.08;0.80;;;;;;;25.51;16.06;99250.94;5026548;28;20076;-77
2022/05/19 01:14:10;;;;;;;0.93;0.60;;;;;;;25.62;16.35;99253.66;5026291;28;20104;-76
2022/05/19 01:16:38;;;;;;;1.35;0.75;;;;;;;25.58;16.39;99250.09;5027038;28;20049;-77
2022/05/19 01:19:30;;;;;;;1.67;0.70;;;;;;;25.64;16.02;99254.03;5027399;28;20524;-77
2022/05/19 01:22:02;;;;;;;2.03;0.90;;;;;;;25.75;15.99;99257.53;5024136;28;20052;-76
2022/05/19 01:24:40;;;;;;;1.35;0.82;;;;;;;25.94;15.75;99249.28;5023186;28;20381;-77
2022/05/19 01:27:06;;;;;;;1.70;0.73;;;;;;;26.04;16.25;99250.41;5023350;28;20032;-76
2022/05/19 01:29:32;;;;;;;3.42;0.80;;;;;;;25.95;15.81;99250.09;5026772;28;20417;-76
2022/05/19 01:32:01;;;;;;;1.00;0.65;;;;;;;25.85;16.25;99246.19;5024863;28;20042;-77
2022/05/19 01:34:30;;;;;;;0.82;0.60;;;;;;;25.65;15.94;99244.38;5026325;28;20040;-76
2022/05/19 01:36:57;;;;;;;2.30;0.85;;;;;;;25.74;16.31;99244.69;5022899;28;20073;-77
2022/05/19 01:39:30;;;;;;;1.70;0.63;;;;;;;25.92;15.89;99251.72;5022526;28;20135;-77
2022/05/19 01:42:08;;;;;;;1.08;0.60;;;;;;;26.01;15.13;99249.22;5026291;28;20151;-77
2022/05/19 01:45:11;;;;;;;1.15;0.70;;;;;;;25.61;16.14;99249.22;5026438;28;20096;-76
2022/05/19 01:48:20;;;;;;;1.60;0.73;;;;;;;25.69;15.36;99247.97;4990171;28;20128;-76
2022/05/19 01:51:01;;;;;;;2.60;0.88;;;;;;;25.85;15.40;99254.63;5015859;28;20041;-76
2022/05/19 01:53:35;;;;;;;1.48;0.57;;;;;;;25.79;16.04;99253.47;5028345;28;20490;-77
2022/05/19 01:56:09;;;;;;;1.90;0.73;;;;;;;25.91;15.51;99247.31;5029737;28;20052;-77
2022/05/19 01:58:59;;;;;;;1.70;0.60;;;;;;;26.11;14.87;99249.53;5027175;28;20193;-77
2022/05/19 02:01:28;;;;;;;1.40;0.80;;;;;;;26.18;15.13;99255.09;5024263;28;20061;-77
2022/05/19 02:04:17;;;;;;;2.58;0.93;;;;;;;25.76;14.92;99248.69;5026362;28;20041;-76
2022/05/19 02:06:53;;;;;;;1.77;0.65;;;;;;;25.61;15.39;99247.22;5027029;28;20022;-77
2022/05/19 02:09:31;;;;;;;2.58;0.70;;;;;;;25.51;15.65;99250.16;5026883;28;20041;-77
2022/05/19 02:12:00;;;;;;;1.25;0.60;;;;;;;25.56;15.77;99247.66;5024088;28;20057;-76
2022/05/19 02:14:58;;;;;;;1.20;0.70;;;;;;;25.66;15.60;99246.78;5025379;28;20413;-76
2022/05/19 02:17:27;;;;;;;3.83;0.70;;;;;;;25.92;15.04;99248.13;5024642;28;20056;-77
2022/05/19 02:19:58;;;;;;;1.85;0.70;;;;;;;25.86;15.05;99244.94;5023795;28;20034;-77
2022/05/19 02:22:29;;;;;;;;;;;;;;;25.96;15.66;99246.06;5023560;28;20033;-76
2022/05/19 02:25:00;;;;;;;0.98;0.73;;;;;;;26.03;15.20;99237.53;5023101;28;19996;-76
2022/05/19 02:27:49;;;;;;;1.05;0.60;;;;;;;25.61;15.46;99238.78;5024072;28;20038;-76
2022/05/19 02:30:25;;;;;;;1.35;0.60;;;;;;;25.66;15.33;99235.53;5017062;28;20099;-77
2022/05/19 02:32:51;;;;;;;1.15;0.73;;;;;;;25.52;15.61;99240.47;5018711;28;20143;-76
2022/05/19 02:35:18;;;;;;;1.50;0.70;;;;;;;25.52;15.70;99234.84;5019336;28;20036;-76
2022/05/19 02:37:44;;;;;;;1.30;0.65;;;;;;;25.57;15.74;99237.22;5020657;28;20030;-76
2022/05/19 02:40:13;;;;;;;1.83;0.60;;;;;;;25.56;15.41;99249.69;5026306;28;20044;-76
2022/05/19 02:42:39;;;;;;;3.05;0.80;;;;;;;25.84;15.35;99241.75;5024188;28;20025;-78
2022/05/19 02:45:06;;;;;;;1.25;0.60;;;;;;;25.66;15.36;99243.16;5042704;28;20037;-78
2022/05/19 02:47:32;;;;;;;1.02;0.65;;;;;;;25.75;15.46;99238.63;5043915;28;20032;-79
2022/05/19 02:49:58;;;;;;;1.27;0.75;;;;;;;25.77;15.35;99230.56;5042448;28;20032;-77
2022/05/19 02:52:25;;;;;;;0.77;0.68;;;;;;;25.91;15.17;99229.63;5041201;28;20040;-77
2022/05/19 02:54:51;;;;;;;2.88;0.60;;;;;;;26.07;15.31;99236.28;5041216;28;20489;-76
2022/05/19 02:57:17;;;;;;;1.40;0.73;;;;;;;26.22;14.99;99233.31;5039613;28;20551;-77
2022/05/19 02:59:43;;;;;;;0.73;0.57;;;;;;;26.20;15.17;99230.94;5037112;28;20029;-76
2022/05/19 03:02:09;;;;;;;1.70;0.60;;;;;;;26.00;15.72;99232.72;5039098;28;20033;-76
2022/05/19 03:04:35;;;;;;;0.95;0.60;;;;;;;25.81;15.40;99233.38;5042186;28;20501;-77
2022/05/19 03:07:01;;;;;;;2.97;0.70;;;;;;;25.67;16.12;99234.28;5045514;28;20032;-77
2022/05/19 03:09:27;;;;;;;1.42;0.70;;;;;;;25.54;16.60;99230.41;5041996;28;20044;-77
2022/05/19 03:11:53;;;;;;;0.70;0.60;;;;;;;25.58;16.14;99231.16;5037035;28;20124;-77
2022/05/19 03:14:19;;;;;;;0.65;0.65;;;;;;;25.74;15.99;99231.41;5039873;28;20033;-77
2022/05/19 03:16:45;;;;;;;1.33;0.60;;;;;;;25.53;16.44;99230.84;5041060;28;20033;-76
2022/05/19 03:19:12;;;;;;;1.27;0.70;;;;;;;25.67;15.93;99230.69;5043302;28;20035;-76
2022/05/19 03:21:38;;;;;;;1.38;0.68;;;;;;;25.89;16.00;99240.50;5041188;28;20048;-76
2022/05/19 03:24:05;;;;;;;1.23;0.70;;;;;;;25.90;15.89;99230.84;5039834;28;20254;-77
2022/05/19 03:26:31;;;;;;;1.88;1.05;;;;;;;26.31;15.38;99239.22;5041148;28;20033;-77
2022/05/19 03:28:57;;;;;;;4.57;0.77;;;;;;;26.49;15.21;99231.38;5040180;28;20401;-76
2022/05/19 03:31:23;;;;;;;1.00;0.60;;;;;;;26.38;15.32;99227.88;5036647;28;20738;-76
2022/05/19 03:33:49;;;;;;;1.27;0.60;;;;;;;26.49;15.39;99237.78;5043327;28;20040;-76
2022/05/19 03:36:16;;;;;;;0.95;0.60;;;;;;;26.71;15.42;99241.09;5038854;28;20147;-77
2022/05/19 03:38:42;;;;;;;0.73;0.60;;;;;;;27.26;15.86;99226.56;5038727;28;20033;-76
2022/05/19 03:41:09;;;;;;;0.77;0.60;;;;;;;28.03;14.93;99232.88;5037473;28;20052;-76
2022/05/19 03:43:35;;;;;;;1.80;0.60;;;;;;;28.64;14.89;99230.41;5040357;28;20519;-77
2022/05/19 03:46:04;;;;;;;1.00;0.68;;;;;;;28.86;14.66;99231.53;5042869;28;20043;-77
2022/05/19 03:48:35;;;;;;;0.80;0.55;;;;;;;28.57;15.17;99239.81;5044035;28;20026;-77
2022/05/19 03:51:08;;;;;;;0.65;0.60;;;;;;;29.09;15.01;99219.25;5048723;28;20473;-77
2022/05/19 03:53:34;;;;;;;0.95;0.68;;;;;;;29.77;15.00;99236.97;5045971;28;20050;-76
2022/05/19 03:56:00;;;;;;;0.55;0.50;;;;;;;30.11;14.33;99227.91;5045465;28;20029;-76
2022/05/19 03:58:26;;;;;;;0.82;0.43;;;;;;;30.23;14.40;99232.03;5043671;28;21691;-76
2022/05/19 04:00:53;;;;;;;3.00;0.57;;;;;;;29.92;14.67;99229.66;5045080;28;20033;-75
2022/05/19 04:03:19;;;;;;;1.23;0.60;;;;;;;29.68;14.63;99231.13;5046732;28;20033;-76
2022/05/19 04:05:46;;;;;;;0.93;0.60;;;;;;;29.52;15.03;99228.31;5032004;28;20129;-78
2022/05/19 04:08:12;;;;;;;1.08;0.60;;;;;;;29.58;14.86;99234.22;5043929;28;20049;-77
2022/05/19 04:10:44;;;;;;;1.55;0.60;;;;;;;29.67;14.30;99223.84;5049715;28;20041;-76
2022/05/19 04:13:11;;;;;;;0.63;0.63;;;;;;;29.82;14.49;99229.97;5040090;28;20039;-76
2022/05/19 04:15:38;;;;;;;1.38;0.60;;;;;;;30.02;14.75;99224.94;5049123;28;20032;-77
2022/05/19 04:18:05;;;;;;;2.22;0.65;;;;;;;30.10;14.65;99226.34;5045791;28;20036;-77
2022/05/19 04:20:31;;;;;;;1.02;0.70;;;;;;;30.10;14.47;99232.00;5046348;28;20043;-77
2022/05/19 04:22:59;;;;;;;1.05;0.70;;;;;;;30.11;14.77;99230.75;5045477;28;20071;-77
2022/05/19 04:25:26;;;;;;;4.30;0.82;;;;;;;30.28;14.40;99232.28;5039332;28;20041;-77
2022/05/19 04:27:52;;;;;;;1.67;0.95;;;;;;;30.48;14.24;99232.94;5048731;28;20033;-77
2022/05/19 04:30:18;;;;;;;1.10;0.60;;;;;;;30.54;14.75;99239.66;5042251;28;20108;-77
2022/05/19 04:32:45;;;;;;;1.08;0.52;;;;;;;30.63;14.03;99238.97;5043985;28;20086;-77
2022/05/19 04:35:13;;;;;;;0.65;0.60;;;;;;;30.76;14.83;99236.94;5045557;28;20033;-77
2022/05/19 04:37:39;;;;;;;0.95;0.50;;;;;;;30.86;14.38;99237.84;5043546;28;20120;-77
2022/05/19 04:40:06;;;;;;;1.17;0.65;;;;;;;30.88;14.15;99238.22;5045573;28;20546;-77
2022/05/19 04:42:33;;;;;;;0.90;0.60;;;;;;;30.83;13.90;99248.06;5044403;28;20036;-77
2022/05/19 04:44:59;;;;;;;1.27;0.60;;;;;;;30.87;14.15;99243.09;5051344;28;20033;-77
2022/05/19 04:47:26;;;;;;;0.85;0.80;;;;;;;30.92;13.92;99236.88;5050494;28;20109;-77
2022/05/19 04:49:52;;;;;;;0.73;0.50;;;;;;;30.92;15.76;99236.88;5049585;28;20033;-76
2022/05/19 04:52:20;;;;;;;0.70;0.45;;;;;;;31.02;15.11;99240.59;5043871;28;20029;-78
2022/05/19 04:54:46;;;;;;;4.20;0.68;;;;;;;31.04;15.33;99241.75;5048105;28;20029;-77
2022/05/19 04:57:13;;;;;;;1.75;0.77;;;;;;;31.02;14.32;99240.59;5050087;28;20041;-77
2022/05/19 04:59:40;;;;;;;1.50;0.60;;;;;;;31.15;15.08;99233.69;5043007;28;20048;-77
2022/05/19 05:02:07;;;;;;;4.75;0.57;;;;;;;31.48;14.55;99237.09;5046370;28;20079;-77
2022/05/19 05:04:33;;;;;;;2.20;0.55;;;;;;;31.53;13.98;99230.81;5049831;28;20497;-78
2022/05/19 05:07:00;;;;;;;0.95;0.68;;;;;;;31.51;14.38;99230.47;5049711;28;20029;-78
2022/05/19 05:09:26;;;;;;;0.93;0.50;;;;;;;31.89;14.11;99236.84;5034241;28;20039;-79
2022/05/19 05:11:52;;;;;;;0.82;0.57;;;;;;;32.07;13.69;99230.53;5049361;28;20033;-79
2022/05/19 05:14:19;;;;;;;0.68;0.50;;;;;;;32.12;14.44;99232.00;5049531;28;20112;-79
2022/05/19 05:16:52;;;;;;;1.23;0.63;;;;;;;32.13;14.81;99230.75;5050996;28;20029;-79
2022/05/19 05:19:22;;;;;;;0.82;0.70;;;;;;;32.01;14.47;99227.50;5050976;28;20033;-78
2022/05/19 05:21:56;;;;;;;0.90;0.40;;;;;;;32.14;14.73;99232.34;5047603;28;20104;-78
2022/05/19 05:24:22;;;;;;;0.70;0.40;;;;;;;32.34;13.82;99235.66;5045751;28;20566;-78
2022/05/19 05:26:48;;;;;;;0.85;0.30;;;;;;;32.38;14.62;99239.94;5044178;28;20041;-78
2022/05/19 05:29:15;;;;;;;0.40;0.40;;;;;;;32.58;14.82;99239.63;5030765;28;20040;-78
2022/05/19 05:31:41;;;;;;;1.10;0.50;;;;;;;32.65;14.36;99236.53;5054445;28;20040;-78
2022/05/19 05:34:08;;;;;;;1.13;0.30;;;;;;;32.84;13.55;99231.72;5063995;28;20127;-78
2022/05/19 05:36:34;;;;;;;0.65;0.43;;;;;;;32.98;14.51;99229.06;5058547;28;20030;-78
2022/05/19 05:39:00;;;;;;;0.40;0.40;;;;;;;32.70;14.53;99227.34;5050514;28;20041;-78
2022/05/19 05:41:26;;;;;;;0.93;0.30;;;;;;;32.88;14.83;99238.06;5050066;28;20064;-78
2022/05/19 05:43:52;;;;;;;0.60;0.40;;;;;;;33.00;13.71;99235.09;5054606;28;20033;-78
2022/05/19 05:46:18;;;;;;;0.77;0.60;;;;;;;33.06;14.54;99235.31;5051767;28;20033;-78
2022/05/19 05:48:45;;;;;;;2.47;0.57;;;;;;;33.30;13.56;99236.34;5053251;28;20090;-78
2022/05/19 05:51:13;;;;;;;0.85;0.40;;;;;;;32.94;13.94;99236.16;5048950;28;20021;-78
2022/05/19 05:53:41;;;;;;;0.30;0.30;;;;;;;32.93;14.30;99238.22;5045792;28;20041;-78
2022/05/19 05:56:09;;;;;;;0.47;0.40;;;;;;;32.97;14.85;99235.25;5040477;28;20026;-78
2022/05/19 05:58:36;;;;;;;1.95;0.47;;;;;;;32.96;14.32;99248.66;5048630;28;20036;-78
2022/05/19 06:01:03;;;;;;;0.95;0.57;;;;;;;32.68;14.91;99244.91;5054382;28;20037;-78
2022/05/19 06:03:29;;;;;;;1.10;0.70;;;;;;;32.99;15.09;99242.06;5052877;28;20433;-78
2022/05/19 06:05:55;;;;;;;1.02;0.40;;;;;;;32.77;14.50;99244.16;5042180;28;20546;-78
2022/05/19 06:08:22;;;;;;;0.70;0.60;;;;;;;32.57;15.49;99243.72;5044253;28;20075;-78
2022/05/19 06:10:48;;;;;;;1.10;0.50;;;;;;;32.84;14.98;99238.19;5046622;28;20083;-78
2022/05/19 06:13:15;;;;;;;0.75;0.50;;;;;;;32.95;15.36;99238.56;5047191;28;20087;-78
2022/05/19 06:15:42;;;;;;;2.13;0.65;;;;;;;33.15;14.74;99238.19;5046451;28;20481;-78
2022/05/19 06:18:08;;;;;;;0.60;0.60;;;;;;;33.59;13.77;99230.25;5040678;28;20021;-78
2022/05/19 06:20:35;;;;;;;0.85;0.63;;;;;;;33.90;13.19;99239.47;5035686;28;20116;-78
2022/05/19 06:23:03;;;;;;;0.80;0.68;;;;;;;33.78;13.34;99237.56;5051316;28;20037;-78
2022/05/19 06:25:29;;;;;;;0.88;0.50;;;;;;;33.14;13.42;99243.06;5030627;28;20033;-78
2022/05/19 06:27:56;;;;;;;1.15;0.60;;;;;;;33.66;14.47;99232.78;5045138;28;20060;-79
2022/05/19 06:30:22;;;;;;;1.35;0.75;;;;;;;34.18;14.58;99231.75;5052983;28;20444;-78
2022/05/19 06:32:49;;;;;;;0.77;0.55;;;;;;;34.35;12.49;99238.72;5042223;28;20442;-78
2022/05/19 06:35:21;;;;;;;2.75;0.70;;;;;;;34.57;13.07;99234.41;5050835;28;20408;-78
2022/05/19 06:37:47;;;;;;;0.80;0.75;;;;;;;34.82;13.78;99233.25;5034055;28;20036;-79
2022/05/19 06:40:15;;;;;;;0.93;0.43;;;;;;;35.56;12.34;99237.38;5052225;28;20045;-79
2022/05/19 06:42:42;;;;;;;1.05;0.60;;;;;;;35.86;11.47;99237.00;5043517;28;20037;-78
2022/05/19 06:45:09;;;;;;;0.40;0.40;;;;;;;35.51;12.28;99241.69;5048004;28;20128;-79
2022/05/19 06:47:36;;;;;;;0.50;0.50;;;;;;;35.56;11.83;99225.94;5041532;28;20132;-78
2022/05/19 06:50:05;;;;;;;0.43;0.40;;;;;;;35.68;11.68;99228.56;5053154;28;20128;-79
2022/05/19 06:52:33;;;;;;;1.00;0.60;;;;;;;35.89;11.60;99218.88;5045193;28;20041;-79
2022/05/19 06:55:02;;;;;;;1.20;0.40;;;;;;;36.13;12.23;99224.56;5046995;28;20029;-79
2022/05/19 06:57:31;;;;;;;1.02;0.60;;;;;;;35.99;12.00;99228.19;5041400;28;20116;-79
2022/05/19 06:59:57;;;;;;;0.77;0.50;;;;;;;35.85;11.96;99218.25;5046074;28;20029;-79
2022/05/19 07:02:24;;;;;;;0.43;0.30;;;;;;;35.74;11.61;99217.22;5049052;28;20063;-79
2022/05/19 07:04:51;;;;;;;0.40;0.25;;;;;;;35.49;11.63;99218.50;5053014;28;20087;-79
2022/05/19 07:07:18;;;;;;;0.40;0.40;;;;;;;35.18;11.88;99227.41;5031652;28;20065;-79
2022/05/19 07:09:44;;;;;;;0.50;0.30;;;;;;;34.60;12.84;99219.19;5037584;28;20045;-79
2022/05/19 07:12:11;;;;;;;1.85;0.30;;;;;;;34.59;12.95;99222.50;5051843;28;20033;-79
2022/05/19 07:14:39;;;;;;;0.73;0.40;;;;;;;34.59;12.37;99213.94;5053078;28;20495;-79
2022/05/19 07:17:05;;;;;;;2.03;0.57;;;;;;;34.08;12.11;99208.16;5052462;28;20044;-79
2022/05/19 07:22:19;;;;;;;0.88;0.50;;;;;;;34.38;12.27;99218.56;5033451;28;20464;-79
2022/05/19 07:24:46;;;;;;;6.85;1.00;;;;;;;34.85;12.22;99217.19;5034777;28;20045;-79
2022/05/19 07:27:13;;;;;;;3.13;0.70;;;;;;;35.38;11.37;99221.13;5053030;28;20063;-79
2022/05/19 07:29:40;;;;;;;0.40;0.40;;;;;;;35.74;11.01;99220.09;5045691;28;20033;-79
2022/05/19 07:32:07;;;;;;;0.80;0.80;;;;;;;35.40;10.73;99207.91;5052921;28;20037;-79
2022/05/19 07:34:36;;;;;;;0.93;0.45;;;;;;;35.18;11.63;99218.84;5063744;28;20476;-79
2022/05/19 07:37:03;;;;;;;0.32;0.28;;;;;;;35.33;10.47;99218.91;5052483;28;20072;-79
2022/05/19 07:39:29;;;;;;;0.73;0.40;;;;;;;35.40;11.07;99215.69;5051436;28;20378;-80
2022/05/19 07:41:56;;;;;;;1.08;0.50;;;;;;;35.49;11.08;99217.69;5051663;28;20052;-79
2022/05/19 07:44:24;;;;;;;0.30;0.30;;;;;;;35.74;10.95;99220.09;5052532;28;20508;-79
2022/05/19 07:46:50;;;;;;;1.10;0.40;;;;;;;36.00;10.54;99218.34;5052346;28;20052;-79
2022/05/19 07:49:16;;;;;;;0.65;0.50;;;;;;;36.02;9.29;99213.69;5041575;28;20036;-79
2022/05/19 07:51:44;;;;;;;0.38;0.35;;;;;;;36.06;9.60;99213.50;5036130;28;20436;-79
2022/05/19 07:54:20;;;;;;;0.40;0.30;;;;;;;35.55;10.42;99222.28;5052744;28;20059;-79
2022/05/19 07:56:47;;;;;;;0.45;0.40;;;;;;;34.79;12.01;99213.41;5051290;28;20026;-79
2022/05/19 07:59:15;;;;;;;0.50;0.30;;;;;;;34.39;12.70;99211.59;5049748;28;20036;-79
2022/05/19 08:01:43;;;;;;;1.40;0.47;;;;;;;34.68;12.12;99206.16;5036540;28;20060;-79
2022/05/19 08:04:10;;;;;;;0.63;0.40;;;;;;;34.13;12.33;99209.56;5052270;28;20086;-79
2022/05/19 08:06:37;;;;;;;0.80;0.50;;;;;;;33.82;12.56;99216.19;5050104;28;20100;-79
2022/05/19 08:10:20;;;;;;;2.70;0.70;;;;;;;32.02;13.35;99208.44;5052666;28;20424;-78
2022/05/19 08:11:52;;;;;;;0.50;0.40;;;;;;;32.65;13.29;99208.84;5050203;28;20048;-79
2022/05/19 08:17:07;;;;;;;0.75;0.40;;;;;;;33.13;11.67;99198.81;5050931;28;20180;-79
2022/05/19 08:19:33;;;;;;;0.70;0.50;;;;;;;33.21;12.16;99193.63;5052177;28;20061;-79
2022/05/19 08:21:59;;;;;;;1.05;0.60;;;;;;;33.64;12.30;99201.16;5051430;28;20048;-79
2022/05/19 08:24:26;;;;;;;0.47;0.40;;;;;;;34.38;11.51;99189.28;5051236;28;20047;-79
2022/05/19 08:26:52;;;;;;;0.50;0.50;;;;;;;34.96;11.80;99191.78;5051644;28;20036;-79
2022/05/19 08:29:19;;;;;;;1.77;0.60;;;;;;;35.43;12.17;99184.09;5049846;28;20032;-79
2022/05/19 08:31:46;;;;;;;0.57;0.50;;;;;;;35.12;10.95;99191.44;5052816;28;20050;-79
2022/05/19 08:34:13;;;;;;;0.70;0.30;;;;;;;35.05;11.52;99189.72;5057251;28;20040;-79
2022/05/19 08:36:41;;;;;;;3.30;0.73;;;;;;;34.91;11.73;99187.53;5053544;28;20082;-79
2022/05/19 08:39:07;;;;;;;0.93;0.30;;;;;;;34.60;10.53;99182.09;5052336;28;20439;-79
2022/05/19 08:41:48;;;;;;;1.63;0.45;;;;;;;34.38;9.98;99175.00;5054363;28;20413;-79
2022/05/19 08:44:45;;;;;;;0.70;0.45;;;;;;;34.91;12.05;99181.81;5052475;28;20045;-79
2022/05/19 08:47:12;;;;;;;0.50;0.40;;;;;;;35.35;10.59;99176.38;5051806;28;20052;-78
2022/05/19 08:49:44;;;;;;;0.32;0.30;;;;;;;35.42;9.58;99176.81;5050557;28;20473;-79
2022/05/19 08:52:14;;;;;;;0.40;0.30;;;;;;;34.88;10.59;99179.13;5054505;28;20033;-79
2022/05/19 08:54:44;;;;;;;1.58;0.38;;;;;;;35.46;11.69;99170.09;5054981;28;20099;-79
2022/05/19 08:57:21;;;;;;;0.50;0.30;;;;;;;35.51;10.70;99167.41;5052750;28;20029;-79
2022/05/19 08:59:50;;;;;;;0.43;0.30;;;;;;;35.46;11.56;99158.66;5052886;28;20048;-79
2022/05/19 09:02:35;;;;;;;2.80;0.70;;;;;;;35.88;10.43;99165.03;5043897;28;20029;-79
2022/05/19 09:05:26;;;;;;;1.85;0.20;;;;;;;36.30;10.86;99162.75;5038673;28;20049;-79
2022/05/19 09:08:09;;;;;;;;;;;;;;;36.65;9.40;99169.38;5043105;28;20045;-80
2022/05/19 09:11:13;;;;;;;0.25;0.20;;;;;;;36.31;10.88;99172.91;5051218;28;20434;-80
2022/05/19 09:13:51;;;;;;;0.45;0.38;;;;;;;36.45;10.33;99177.09;5055206;28;20048;-79
2022/05/19 09:16:24;;;;;;;0.75;0.32;;;;;;;36.47;9.00;99163.06;5054096;28;20040;-80
2022/05/19 09:19:09;;;;;;;0.57;0.30;;;;;;;36.62;10.72;99161.78;5035949;28;20396;-80
2022/05/19 09:21:38;;;;;;;7.72;0.30;;;;;;;36.98;10.16;99163.41;5035047;28;20100;-79
2022/05/19 09:24:05;;;;;;;0.95;0.40;;;;;;;34.95;13.04;99161.66;5036845;28;20101;-79
2022/05/19 09:26:46;;;;;;;1.52;0.30;;;;;;;35.05;12.06;99168.94;5054489;28;20029;-80
2022/05/19 09:29:20;;;;;;;0.55;0.40;;;;;;;35.09;10.11;99163.84;5054592;28;20064;-79
2022/05/19 09:31:50;;;;;;;0.20;0.20;;;;;;;35.44;11.33;99162.03;5067692;28;20087;-79
2022/05/19 09:34:17;;;;;;;0.80;0.60;;;;;;;35.39;11.29;99159.84;5057036;28;20040;-80
2022/05/19 09:37:04;;;;;;;0.38;0.30;;;;;;;36.19;10.81;99165.41;5041152;28;20029;-80
2022/05/19 09:39:35;;;;;;;0.70;0.60;;;;;;;35.99;10.66;99162.41;5043831;28;20021;-80
2022/05/19 09:42:10;;;;;;;2.72;0.50;;;;;;;35.85;10.05;99161.09;5052447;28;20045;-79
2022/05/19 09:44:42;;;;;;;0.50;0.50;;;;;;;36.10;10.28;99156.94;5046142;28;20033;-79
2022/05/19 09:47:20;;;;;;;2.53;0.40;;;;;;;35.37;10.81;99153.81;5054630;28;20477;-79
2022/05/19 09:49:54;;;;;;;0.45;0.40;;;;;;;35.72;11.38;99142.63;5038081;28;20385;-80
2022/05/19 09:52:26;;;;;;;0.75;0.35;;;;;;;35.64;11.77;99147.91;5052131;28;20045;-80
2022/05/19 09:54:56;;;;;;;0.55;0.40;;;;;;;34.20;11.91;99140.81;5035929;28;20040;-80
2022/05/19 09:57:43;;;;;;;1.45;0.50;;;;;;;35.18;11.79;99140.94;5053020;28;20508;-79
2022/05/19 10:00:32;;;;;;;0.55;0.35;;;;;;;35.90;10.62;99140.41;5052149;28;20104;-80
2022/05/19 10:03:01;;;;;;;0.63;0.43;;;;;;;35.77;11.31;99133.38;5050069;28;20032;-80
2022/05/19 10:05:36;;;;;;;1.48;0.50;;;;;;;36.30;11.18;99136.19;5052506;28;20090;-80
2022/05/19 10:08:07;;;;;;;1.45;0.90;;;;;;;36.94;11.35;99122.75;5033634;28;20056;-79
2022/05/19 10:10:55;;;;;;;0.57;0.47;;;;;;;36.80;11.42;99131.34;5050493;28;20429;-79
2022/05/19 10:13:28;;;;;;;0.50;0.40;;;;;;;37.00;10.31;99132.19;5053367;28;20119;-79
2022/05/19 10:16:07;;;;;;;1.17;0.47;;;;;;;37.15;10.33;99135.81;5037963;28;20037;-79
2022/05/19 10:18:39;;;;;;;0.65;0.30;;;;;;;36.42;11.44;99140.84;5049660;28;20025;-79
2022/05/19 10:21:22;;;;;;;2.17;0.40;;;;;;;36.00;11.13;99127.63;5054082;28;20029;-79
2022/05/19 10:24:13;;;;;;;1.13;0.50;;;;;;;36.73;10.50;99121.91;5051166;28;20033;-79
2022/05/19 10:31:02;;;;;;;1.23;0.40;;;;;;;37.50;10.06;99107.13;5051529;28;20045;-79
2022/05/19 10:33:29;;;;;;;0.93;0.40;;;;;;;34.99;10.87;99105.97;5046883;28;20055;-79
2022/05/19 10:36:39;;;;;;;0.57;0.30;;;;;;;36.43;11.92;99111.72;5053011;28;20048;-79
2022/05/19 10:39:21;;;;;;;0.35;0.35;;;;;;;37.33;10.56;99097.50;5052266;28;20076;-79
2022/05/19 10:42:10;;;;;;;0.20;0.20;;;;;;;38.16;10.02;99091.97;5036981;28;20521;-79
2022/05/19 10:44:45;;;;;;;0.40;0.40;;;;;;;38.45;9.84;99088.84;5052183;28;20047;-79
2022/05/19 10:47:36;;;;;;;0.88;0.30;;;;;;;38.52;9.70;99094.09;5041453;28;20040;-79
2022/05/19 10:50:11;;;;;;;0.57;0.25;;;;;;;38.93;8.75;99089.72;5051192;28;20472;-80
2022/05/19 10:52:53;;;;;;;0.80;0.50;;;;;;;38.75;8.92;99078.63;5053016;28;20085;-79
2022/05/19 10:55:54;;;;;;;0.45;0.30;;;;;;;38.57;9.15;99076.13;5039449;28;20026;-79
2022/05/19 10:58:26;;;;;;;0.57;0.40;;;;;;;38.17;8.86;99073.44;5033745;28;20029;-79
2022/05/19 11:01:07;;;;;;;0.52;0.30;;;;;;;38.25;9.70;99063.88;5035130;28;20032;-79
2022/05/19 11:04:02;;;;;;;0.75;0.30;;;;;;;37.65;9.36;99064.81;5033372;28;20045;-79
2022/05/19 11:06:39;;;;;;;0.90;0.30;;;;;;;38.29;10.24;99066.53;5042779;28;20032;-79
2022/05/19 11:09:32;;;;;;;0.43;0.30;;;;;;;38.89;9.28;99060.44;5051588;28;20052;-80
2022/05/19 11:12:07;;;;;;;2.25;0.30;;;;;;;39.30;9.80;99053.09;5053303;28;20060;-80
2022/05/19 11:14:57;;;;;;;0.80;0.30;;;;;;;39.12;10.21;99065.00;5048745;28;20564;-80
2022/05/19 11:18:02;;;;;;;0.40;0.40;;;;;;;37.95;10.13;99057.59;5034098;28;20117;-80
2022/05/19 11:20:55;;;;;;;0.52;0.20;;;;;;;38.19;9.47;99060.16;5035342;28;20039;-80
2022/05/19 11:23:22;;;;;;;0.75;0.43;;;;;;;37.91;10.43;99053.38;5044579;28;20067;-79
2022/05/19 11:26:26;;;;;;;0.22;0.22;;;;;;;37.05;10.95;99054.16;5041660;28;20029;-80
2022/05/19 11:29:23;;;;;;;0.73;0.35;;;;;;;37.10;10.17;99050.59;5038698;28;20026;-79
2022/05/19 11:32:07;;;;;;;1.52;0.50;;;;;;;37.95;9.26;99043.25;5052318;28;20086;-80
2022/05/19 11:34:35;;;;;;;0.43;0.35;;;;;;;38.64;10.52;99041.22;5049087;28;20087;-80
2022/05/19 11:37:23;;;;;;;1.13;0.30;;;;;;;38.98;10.12;99037.25;5051469;28;20396;-80
2022/05/19 11:39:58;;;;;;;0.50;0.40;;;;;;;39.41;9.78;99031.44;5052817;28;20080;-80
2022/05/19 11:42:47;;;;;;;1.02;0.30;;;;;;;39.26;9.02;99023.81;5043174;28;20112;-80
2022/05/19 11:45:28;;;;;;;0.80;0.40;;;;;;;39.43;9.03;99021.00;5050516;28;20033;-80
2022/05/19 11:56:33;;;;;;;0.20;0.20;;;;;;;38.66;9.20;99009.91;5053111;28;20389;-80
2022/05/19 11:58:59;;;;;;;0.50;0.30;;;;;;;37.73;10.84;99011.47;5043840;28;20043;-79
2022/05/19 12:01:37;;;;;;;0.70;0.50;;;;;;;37.87;9.41;99006.94;5040206;28;20029;-79
2022/05/19 12:04:31;;;;;;;0.45;0.40;;;;;;;38.08;10.76;99014.16;5039349;28;20037;-80
2022/05/19 12:07:09;;;;;;;0.68;0.40;;;;;;;38.31;9.78;99007.34;5045682;28;20036;-80
2022/05/19 12:09:38;;;;;;;0.35;0.35;;;;;;;38.80;7.59;98997.47;5042408;28;20040;-80
2022/05/19 12:12:30;;;;;;;0.32;0.32;;;;;;;38.67;9.65;98988.53;5044090;28;20029;-79
2022/05/19 12:15:21;;;;;;;1.30;0.30;;;;;;;39.31;8.20;98982.03;5037129;28;20045;-80